AirNav   Air Wisconsin Up To $57,000 Bonus
 
 1327 users online  

OG34 Meyer Riverside Airpark
Tigard, Oregon, USA

GOING TO TIGARD?


FAA INFORMATION EFFECTIVE 02 JANUARY 2020

Location

FAA Identifier: OG34
Lat/Long: 45-23-59.4250N 122-49-44.3540W
45-23.990417N 122-49.739233W
45.3998403,-122.8289872
(estimated)
Elevation: 252 ft. / 77 m (estimated)
Variation: 19E (1985)
From city: 3 miles SW of TIGARD, OR
Time zone: UTC -8 (UTC -7 during Daylight Saving Time)
Zip code: 97224

Airport Operations

Airport use: Private use. Permission required prior to landing
Activation date: 05/1956
Control tower: no
ARTCC: SEATTLE CENTER
FSS: MC MINNVILLE FLIGHT SERVICE STATION
Attendance: ON CALL ON CALL
Wind indicator: yes
Segmented circle: no

Airport Communications

WX ASOS at UAO (9 nm S): PHONE 503-678-3011
WX ASOS at HIO (10 nm NW): PHONE 503-640-2984
WX ASOS at PDX (15 nm NE): PHONE (503) 493-7687
WX ASOS at VUO (15 nm NE): 135.125 (360-696-1280)
WX ASOS at MMV (18 nm SW): 135.675 (503-434-9153)

Nearby radio navigation aids

VOR radial/distance  VOR name  Freq  Var
UBGr045/6.9NEWBERG VOR/DME117.4021E
BTGr185/23.1BATTLE GROUND VORTAC116.6021E

 
NDB name  Hdg/Dist  Freq  Var  ID
BANKS131/16.635616EPND .--. -. -..

Airport Services

Airframe service: NONE
Powerplant service: NONE

Runway Information

Runway 16/34

Dimensions: 1585 x 100 ft. / 483 x 30 m
Surface: turf
RUNWAY 16  RUNWAY 34
Traffic pattern: leftleft
Obstructions: plines, 10 ft. from runwaytrees, 100 ft. from runway

Airport Ownership and Management from official FAA records

Ownership: Privately-owned
Owner: JAMES MEYER
14730 SW BEEF BEND RD
TIGARD, OR 97224
Phone 503-590-6903
Manager: JAMES MEYER
14730 SW BEEF BEND RD
TIGARD, OR 97224
Phone 503-590-6903

Airport Operational Statistics

Aircraft based on the field: 2
Single engine airplanes: 1
Helicopters: 1
    

Additional Remarks

FOR CD CTC PORTLAND APCH AT 503-493-7545.

Instrument Procedures

There are no published instrument procedures at OG34.

Some nearby airports with instrument procedures:

KUAO - Aurora State Airport (9 nm S)
KHIO - Portland-Hillsboro Airport (10 nm NW)
KPDX - Portland International Airport (15 nm NE)
KVUO - Pearson Field Airport (15 nm NE)
KMMV - Mc Minnville Municipal Airport (18 nm SW)
 
Loc | Ops | Rwys | IFR | FBO | Links
Com | Nav | Svcs | Stats | Notes
Area around OG34 (Meyer Riverside Airpark)
 
Road maps at: MapQuest Bing Google
 
Aerial photo
WARNING: Photo may not be current or correct
Aerial photo of OG34 (Meyer Riverside Airpark)
Do you have a better or more recent aerial photo of Meyer Riverside Airpark that you would like to share? If so, please send us your photo.

 
Sectional chart

 
Airport distance calculator
Flying to Meyer Riverside Airpark? Find the distance to fly.

From to OG34

Sunrise and sunset
Times for 25-Jan-2020
 Local
(UTC-8)
 Zulu
(UTC)
Morning civil twilight07:0815:08
Sunrise07:4115:41
Sunset17:0701:07
Evening civil twilight17:3901:39

Current date and time
Zulu (UTC)  26-Jan-2020 00:41:58
Local (UTC-8)  25-Jan-2020 16:41:58
 
METAR
KUAO 
9nm S 
252353Z 00000KT 10SM CLR 13/08 A2999 RMK AO2 SLP154 T01330083 10144 20117 56018
KHIO 
10nm NW 
252353Z 00000KT 10SM CLR 13/08 A2998 RMK AO2 SLP152 T01280078 10128 20111 56015
KPDX 
15nm NE 
252353Z 11003KT 10SM FEW028 BKN160 13/08 A2999 RMK AO2 SLP155 T01280083 10144 20122 57015
KVUO 
15nm NE 
252353Z AUTO 16003KT 10SM CLR 14/08 A2998 RMK AO2 SLP152 T01390078 10144 20117 56016
KMMV 
18nm SW 
252353Z AUTO 33004KT 10SM CLR 12/08 A2997 RMK AO2 SLP148 T01170078 10133 20106 58017
KTTD 
20nm NE 
252353Z 09007KT 10SM CLR 12/08 A2998 RMK AO2 SLP151 T01170078 10144 20106 58022
TAF
KUAO 
9nm S 
251733Z 2518/2618 20008G15KT P6SM SCT025 OVC070 FM252000 19005KT P6SM SCT040 OVC100 FM260000 07007KT P6SM -RA OVC060 FM260800 19012G19KT 6SM -RA OVC025 FM261700 20009G16KT P6SM -RA OVC025
KHIO 
10nm NW 
251733Z 2518/2618 17009KT P6SM SCT009 BKN025 FM252000 16008KT P6SM SCT035 BKN100 FM260000 VRB05KT P6SM -RA SCT030 OVC060 FM260700 16014G22KT P6SM -RA SCT025 OVC040 FM261100 16014G21KT 4SM -RA BR OVC025 FM261500 18008KT P6SM -RA OVC014
KPDX 
15nm NE 
251733Z 2518/2618 18009KT P6SM FEW015 OVC040 FM252300 17005KT P6SM SCT025 BKN080 FM260300 10007KT P6SM -RA SCT030 OVC060 FM260700 10011G22KT P6SM -RA OVC040 FM261100 15015G22KT P6SM -RA OVC025 FM261700 18009KT P6SM -RA SCT025 OVC050
KTTD 
20nm NE 
251733Z 2518/2618 08005KT P6SM SCT020 BKN035 OVC040 FM252200 09007KT P6SM SCT040 OVC100 FM260000 08010KT P6SM -RA SCT030 OVC060 FM260500 09014G21KT P6SM -RA SCT020 OVC040 FM261500 19005KT P6SM -RA OVC015
NOTAMs
Click for the latest NOTAMs
NOTAMs are issued by the DoD/FAA and will open in a separate window not controlled by AirNav.

 

 
 

Would you like to see your business listed on this page?

 If your business provides an interesting product or service to pilots, flight crews, aircraft, or users of the Meyer Riverside Airpark, you should consider listing it here.  To start the listing process, click on the button below
 
Add a business
 

Other Pages about Meyer Riverside Airpark

Update a link
 
Copyright © AirNav, LLC. All rights reserved. Privacy Policy  Contact